sensor_id;sensor_type;location;lat;lon;timestamp;pressure;altitude;pressure_sealevel;temperature;humidity
37304;BME280;23188;51.188;16.374;2023-02-26T00:01:25;99423.98;;;1.58;97.35
37304;BME280;23188;51.188;16.374;2023-02-26T00:24:12;99452.29;;;1.82;95.21
37304;BME280;23188;51.188;16.374;2023-02-26T00:28:20;99455.56;;;1.80;95.27
37304;BME280;23188;51.188;16.374;2023-02-26T00:32:33;99455.72;;;1.71;96.54
37304;BME280;23188;51.188;16.374;2023-02-26T00:41:06;99452.79;;;1.58;98.80
37304;BME280;23188;51.188;16.374;2023-02-26T00:45:10;99457.23;;;1.57;99.86
37304;BME280;23188;51.188;16.374;2023-02-26T00:59:13;99465.02;;;1.64;100.00
37304;BME280;23188;51.188;16.374;2023-02-26T01:03:15;99467.78;;;1.55;100.00
37304;BME280;23188;51.188;16.374;2023-02-26T01:07:19;99472.50;;;1.55;100.00
37304;BME280;23188;51.188;16.374;2023-02-26T01:11:21;99478.27;;;1.56;100.00
37304;BME280;23188;51.188;16.374;2023-02-26T01:15:23;99477.58;;;1.59;100.00
37304;BME280;23188;51.188;16.374;2023-02-26T01:23:40;99485.77;;;1.53;100.00
37304;BME280;23188;51.188;16.374;2023-02-26T01:27:42;99485.02;;;1.51;100.00
37304;BME280;23188;51.188;16.374;2023-02-26T01:32:06;99488.68;;;1.48;100.00
37304;BME280;23188;51.188;16.374;2023-02-26T01:36:19;99494.23;;;1.42;100.00
37304;BME280;23188;51.188;16.374;2023-02-26T01:44:55;99501.73;;;1.36;100.00
37304;BME280;23188;51.188;16.374;2023-02-26T01:48:59;99509.14;;;1.41;100.00
37304;BME280;23188;51.188;16.374;2023-02-26T01:53:17;99512.89;;;1.46;100.00
37304;BME280;23188;51.188;16.374;2023-02-26T01:57:20;99516.09;;;1.42;100.00
37304;BME280;23188;51.188;16.374;2023-02-26T02:01:53;99524.63;;;1.42;100.00
37304;BME280;23188;51.188;16.374;2023-02-26T02:06:00;99527.63;;;1.45;100.00
37304;BME280;23188;51.188;16.374;2023-02-26T02:10:03;99533.70;;;1.46;100.00
37304;BME280;23188;51.188;16.374;2023-02-26T02:14:42;99537.14;;;1.47;100.00
37304;BME280;23188;51.188;16.374;2023-02-26T02:19:19;99546.11;;;1.49;100.00
37304;BME280;23188;51.188;16.374;2023-02-26T02:23:47;99552.05;;;1.52;99.93
37304;BME280;23188;51.188;16.374;2023-02-26T02:28:11;99557.20;;;1.44;99.45
37304;BME280;23188;51.188;16.374;2023-02-26T02:40:50;99579.79;;;1.46;99.20
37304;BME280;23188;51.188;16.374;2023-02-26T02:44:58;99592.65;;;1.38;98.80
37304;BME280;23188;51.188;16.374;2023-02-26T02:49:04;99593.21;;;1.34;98.78
37304;BME280;23188;51.188;16.374;2023-02-26T02:53:12;99590.98;;;1.34;98.79
37304;BME280;23188;51.188;16.374;2023-02-26T02:57:21;99599.36;;;1.37;98.05
37304;BME280;23188;51.188;16.374;2023-02-26T03:01:26;99609.06;;;1.38;97.05
37304;BME280;23188;51.188;16.374;2023-02-26T03:05:28;99619.02;;;1.42;96.44
37304;BME280;23188;51.188;16.374;2023-02-26T03:09:33;99624.11;;;1.38;95.69
37304;BME280;23188;51.188;16.374;2023-02-26T03:13:36;99632.16;;;1.41;95.74
37304;BME280;23188;51.188;16.374;2023-02-26T03:31:46;99664.71;;;1.46;94.45
37304;BME280;23188;51.188;16.374;2023-02-26T03:37:20;99677.55;;;1.48;93.75
37304;BME280;23188;51.188;16.374;2023-02-26T03:41:30;99678.54;;;1.49;93.44
37304;BME280;23188;51.188;16.374;2023-02-26T03:45:44;99687.73;;;1.54;94.27
37304;BME280;23188;51.188;16.374;2023-02-26T03:55:03;99701.02;;;1.50;93.20
37304;BME280;23188;51.188;16.374;2023-02-26T03:59:05;99711.26;;;1.55;93.38
37304;BME280;23188;51.188;16.374;2023-02-26T04:07:48;99719.27;;;1.63;93.50
37304;BME280;23188;51.188;16.374;2023-02-26T04:11:52;99720.48;;;1.62;93.35
37304;BME280;23188;51.188;16.374;2023-02-26T04:15:53;99727.17;;;1.59;92.38
37304;BME280;23188;51.188;16.374;2023-02-26T04:19:55;99732.09;;;1.51;92.55
37304;BME280;23188;51.188;16.374;2023-02-26T04:23:56;99738.68;;;1.49;93.22
37304;BME280;23188;51.188;16.374;2023-02-26T04:27:57;99739.89;;;1.42;92.71
37304;BME280;23188;51.188;16.374;2023-02-26T04:32:00;99742.17;;;1.32;93.02
37304;BME280;23188;51.188;16.374;2023-02-26T04:36:02;99744.91;;;1.26;92.97
37304;BME280;23188;51.188;16.374;2023-02-26T04:50:59;99757.81;;;1.30;92.37
37304;BME280;23188;51.188;16.374;2023-02-26T04:55:07;99763.36;;;1.31;92.16
37304;BME280;23188;51.188;16.374;2023-02-26T04:59:12;99769.74;;;1.26;92.54
37304;BME280;23188;51.188;16.374;2023-02-26T05:03:16;99772.67;;;1.23;93.00
37304;BME280;23188;51.188;16.374;2023-02-26T05:07:19;99774.86;;;1.15;93.67
37304;BME280;23188;51.188;16.374;2023-02-26T05:11:49;99781.23;;;1.06;94.20
37304;BME280;23188;51.188;16.374;2023-02-26T05:15:53;99792.83;;;1.08;94.36
37304;BME280;23188;51.188;16.374;2023-02-26T05:19:56;99796.21;;;1.17;94.55
37304;BME280;23188;51.188;16.374;2023-02-26T05:23:59;99797.52;;;1.15;94.53
37304;BME280;23188;51.188;16.374;2023-02-26T05:28:28;99799.39;;;1.16;94.77
37304;BME280;23188;51.188;16.374;2023-02-26T05:32:40;99804.42;;;1.13;94.84
37304;BME280;23188;51.188;16.374;2023-02-26T05:36:43;99812.30;;;1.17;95.02
37304;BME280;23188;51.188;16.374;2023-02-26T05:40:48;99821.27;;;1.05;94.47
37304;BME280;23188;51.188;16.374;2023-02-26T05:44:51;99827.91;;;1.01;94.93
37304;BME280;23188;51.188;16.374;2023-02-26T05:48:54;99839.42;;;1.09;95.67
37304;BME280;23188;51.188;16.374;2023-02-26T05:52:57;99849.30;;;1.10;95.23
37304;BME280;23188;51.188;16.374;2023-02-26T05:57:00;99846.37;;;1.03;95.23
37304;BME280;23188;51.188;16.374;2023-02-26T06:01:29;99859.14;;;1.09;96.47
37304;BME280;23188;51.188;16.374;2023-02-26T06:05:32;99871.68;;;1.09;95.66
37304;BME280;23188;51.188;16.374;2023-02-26T06:09:38;99876.03;;;1.06;95.17
37304;BME280;23188;51.188;16.374;2023-02-26T06:13:48;99884.30;;;1.09;95.26
37304;BME280;23188;51.188;16.374;2023-02-26T06:17:51;99893.25;;;1.11;95.16
37304;BME280;23188;51.188;16.374;2023-02-26T06:21:55;99899.14;;;1.05;95.41
37304;BME280;23188;51.188;16.374;2023-02-26T06:25:58;99910.27;;;1.14;94.96
37304;BME280;23188;51.188;16.374;2023-02-26T06:30:22;99913.91;;;1.18;93.93
37304;BME280;23188;51.188;16.374;2023-02-26T06:34:32;99918.57;;;1.15;94.55
37304;BME280;23188;51.188;16.374;2023-02-26T06:38:35;99928.17;;;1.15;94.21
37304;BME280;23188;51.188;16.374;2023-02-26T06:42:38;99936.98;;;1.21;94.37
37304;BME280;23188;51.188;16.374;2023-02-26T06:46:40;99937.15;;;1.25;94.53
37304;BME280;23188;51.188;16.374;2023-02-26T06:50:43;99944.23;;;1.26;93.65
37304;BME280;23188;51.188;16.374;2023-02-26T06:54:46;99954.98;;;1.21;93.39
37304;BME280;23188;51.188;16.374;2023-02-26T06:58:50;99960.45;;;1.20;93.63
37304;BME280;23188;51.188;16.374;2023-02-26T07:02:52;99962.50;;;1.24;94.19
37304;BME280;23188;51.188;16.374;2023-02-26T07:06:59;99971.27;;;1.20;93.63
37304;BME280;23188;51.188;16.374;2023-02-26T07:11:16;99975.00;;;1.26;93.71
37304;BME280;23188;51.188;16.374;2023-02-26T07:15:19;99982.39;;;1.25;94.13
37304;BME280;23188;51.188;16.374;2023-02-26T07:38:56;100014.38;;;1.54;92.97
37304;BME280;23188;51.188;16.374;2023-02-26T07:42:59;100022.42;;;1.61;92.68
37304;BME280;23188;51.188;16.374;2023-02-26T07:47:02;100024.33;;;1.65;91.92
37304;BME280;23188;51.188;16.374;2023-02-26T07:51:25;100036.21;;;1.72;91.34
37304;BME280;23188;51.188;16.374;2023-02-26T07:55:30;100034.66;;;1.65;92.37
37304;BME280;23188;51.188;16.374;2023-02-26T07:59:33;100044.37;;;1.70;91.54
37304;BME280;23188;51.188;16.374;2023-02-26T08:03:37;100050.21;;;1.72;92.10
37304;BME280;23188;51.188;16.374;2023-02-26T08:07:40;100059.50;;;1.68;92.35
37304;BME280;23188;51.188;16.374;2023-02-26T08:11:43;100068.40;;;1.68;92.45
37304;BME280;23188;51.188;16.374;2023-02-26T08:20:45;100071.83;;;1.70;92.07
37304;BME280;23188;51.188;16.374;2023-02-26T08:24:48;100076.68;;;1.78;92.33
37304;BME280;23188;51.188;16.374;2023-02-26T08:28:52;100084.60;;;1.88;91.84
37304;BME280;23188;51.188;16.374;2023-02-26T08:32:55;100090.08;;;1.94;92.26
37304;BME280;23188;51.188;16.374;2023-02-26T08:36:58;100100.20;;;2.02;91.29
37304;BME280;23188;51.188;16.374;2023-02-26T08:41:01;100108.15;;;2.07;90.68
37304;BME280;23188;51.188;16.374;2023-02-26T08:45:05;100113.63;;;2.02;91.24
37304;BME280;23188;51.188;16.374;2023-02-26T08:49:08;100118.04;;;2.20;92.59
37304;BME280;23188;51.188;16.374;2023-02-26T08:53:11;100131.27;;;2.25;91.37
37304;BME280;23188;51.188;16.374;2023-02-26T08:57:14;100133.89;;;2.25;91.18
37304;BME280;23188;51.188;16.374;2023-02-26T09:06:57;100146.09;;;2.33;91.64
37304;BME280;23188;51.188;16.374;2023-02-26T09:11:24;100147.55;;;2.42;91.30
37304;BME280;23188;51.188;16.374;2023-02-26T09:15:27;100156.45;;;2.47;90.21
37304;BME280;23188;51.188;16.374;2023-02-26T09:19:30;100159.65;;;2.46;89.48
37304;BME280;23188;51.188;16.374;2023-02-26T09:28:34;100176.40;;;2.43;89.50
37304;BME280;23188;51.188;16.374;2023-02-26T09:33:01;100188.88;;;2.42;90.96
37304;BME280;23188;51.188;16.374;2023-02-26T09:37:07;100196.13;;;2.40;90.86
37304;BME280;23188;51.188;16.374;2023-02-26T09:41:33;100201.45;;;2.42;90.80
37304;BME280;23188;51.188;16.374;2023-02-26T09:45:50;100211.31;;;2.41;90.01
37304;BME280;23188;51.188;16.374;2023-02-26T09:59:56;100223.98;;;2.51;90.42
37304;BME280;23188;51.188;16.374;2023-02-26T10:05:04;100234.90;;;2.57;89.84
37304;BME280;23188;51.188;16.374;2023-02-26T10:15:21;100245.28;;;2.70;89.80
37304;BME280;23188;51.188;16.374;2023-02-26T11:00:51;100290.85;;;2.80;89.33
37304;BME280;23188;51.188;16.374;2023-02-26T11:04:56;100298.61;;;2.86;89.58
37304;BME280;23188;51.188;16.374;2023-02-26T11:09:32;100304.19;;;3.01;88.82
37304;BME280;23188;51.188;16.374;2023-02-26T11:13:37;100303.88;;;3.21;89.22
37304;BME280;23188;51.188;16.374;2023-02-26T11:17:41;100307.28;;;3.41;88.65
37304;BME280;23188;51.188;16.374;2023-02-26T11:21:46;100312.41;;;3.50;86.18
37304;BME280;23188;51.188;16.374;2023-02-26T11:25:58;100319.66;;;3.52;83.27
37304;BME280;23188;51.188;16.374;2023-02-26T11:30:25;100315.86;;;3.61;83.50
37304;BME280;23188;51.188;16.374;2023-02-26T11:34:28;100321.17;;;3.74;82.29
37304;BME280;23188;51.188;16.374;2023-02-26T11:38:32;100322.63;;;3.90;81.55
37304;BME280;23188;51.188;16.374;2023-02-26T11:42:44;100317.42;;;4.08;79.87
37304;BME280;23188;51.188;16.374;2023-02-26T11:46:52;100321.83;;;4.24;80.78
37304;BME280;23188;51.188;16.374;2023-02-26T11:50:59;100328.89;;;4.24;81.62
37304;BME280;23188;51.188;16.374;2023-02-26T11:55:43;100336.45;;;4.00;79.95
37304;BME280;23188;51.188;16.374;2023-02-26T11:59:51;100336.52;;;3.75;80.10
37304;BME280;23188;51.188;16.374;2023-02-26T12:03:58;100338.02;;;3.67;81.21
37304;BME280;23188;51.188;16.374;2023-02-26T12:08:17;100344.89;;;3.49;81.74
37304;BME280;23188;51.188;16.374;2023-02-26T12:12:33;100353.53;;;3.41;83.12
37304;BME280;23188;51.188;16.374;2023-02-26T12:21:27;100369.90;;;3.12;89.66
37304;BME280;23188;51.188;16.374;2023-02-26T12:25:53;100370.09;;;3.11;90.86
37304;BME280;23188;51.188;16.374;2023-02-26T12:34:36;100371.48;;;3.33;87.30
37304;BME280;23188;51.188;16.374;2023-02-26T12:39:31;100375.29;;;3.52;84.66
37304;BME280;23188;51.188;16.374;2023-02-26T12:43:38;100372.70;;;3.75;86.09
37304;BME280;23188;51.188;16.374;2023-02-26T13:01:17;100386.76;;;3.98;76.75
37304;BME280;23188;51.188;16.374;2023-02-26T13:23:18;100403.26;;;3.85;77.15
37304;BME280;23188;51.188;16.374;2023-02-26T13:27:26;100402.11;;;3.76;75.03
37304;BME280;23188;51.188;16.374;2023-02-26T13:31:58;100406.27;;;3.80;77.10
37304;BME280;23188;51.188;16.374;2023-02-26T13:36:02;100409.30;;;3.86;78.53
37304;BME280;23188;51.188;16.374;2023-02-26T13:44:44;100419.47;;;4.14;74.53
37304;BME280;23188;51.188;16.374;2023-02-26T13:49:14;100426.52;;;4.17;74.20
37304;BME280;23188;51.188;16.374;2023-02-26T14:01:51;100430.60;;;3.95;79.80
37304;BME280;23188;51.188;16.374;2023-02-26T14:06:22;100435.91;;;3.98;79.20
37304;BME280;23188;51.188;16.374;2023-02-26T14:10:44;100435.98;;;4.00;77.23
37304;BME280;23188;51.188;16.374;2023-02-26T14:20:11;100431.94;;;4.17;75.81
37304;BME280;23188;51.188;16.374;2023-02-26T14:23:46;100432.54;;;4.19;75.68
37304;BME280;23188;51.188;16.374;2023-02-26T14:36:40;100443.45;;;4.35;73.54
37304;BME280;23188;51.188;16.374;2023-02-26T14:40:52;100449.39;;;4.46;70.93
37304;BME280;23188;51.188;16.374;2023-02-26T14:45:07;100447.05;;;4.47;67.16
37304;BME280;23188;51.188;16.374;2023-02-26T14:49:24;100451.98;;;4.36;71.25
37304;BME280;23188;51.188;16.374;2023-02-26T14:58:10;100460.95;;;4.16;69.22
37304;BME280;23188;51.188;16.374;2023-02-26T15:02:31;100469.03;;;4.12;68.73
37304;BME280;23188;51.188;16.374;2023-02-26T15:19:58;100477.56;;;4.48;73.85
37304;BME280;23188;51.188;16.374;2023-02-26T15:24:09;100481.65;;;4.53;72.14
37304;BME280;23188;51.188;16.374;2023-02-26T15:28:23;100485.12;;;4.44;72.66
37304;BME280;23188;51.188;16.374;2023-02-26T15:32:29;100495.34;;;4.23;74.18
37304;BME280;23188;51.188;16.374;2023-02-26T15:36:33;100503.91;;;3.96;77.52
37304;BME280;23188;51.188;16.374;2023-02-26T15:40:37;100506.70;;;3.82;79.92
37304;BME280;23188;51.188;16.374;2023-02-26T15:44:40;100514.70;;;3.77;79.56
37304;BME280;23188;51.188;16.374;2023-02-26T15:49:08;100520.01;;;3.65;76.73
37304;BME280;23188;51.188;16.374;2023-02-26T15:57:32;100532.24;;;3.40;74.35
37304;BME280;23188;51.188;16.374;2023-02-26T16:01:36;100537.21;;;3.31;75.02
37304;BME280;23188;51.188;16.374;2023-02-26T16:05:42;100544.57;;;3.27;75.50
37304;BME280;23188;51.188;16.374;2023-02-26T16:09:48;100555.14;;;3.23;75.22
37304;BME280;23188;51.188;16.374;2023-02-26T16:13:52;100560.01;;;3.16;75.39
37304;BME280;23188;51.188;16.374;2023-02-26T16:17:56;100571.50;;;3.06;74.43
37304;BME280;23188;51.188;16.374;2023-02-26T16:26:48;100579.34;;;2.84;75.31
37304;BME280;23188;51.188;16.374;2023-02-26T16:31:04;100580.95;;;2.83;76.02
37304;BME280;23188;51.188;16.374;2023-02-26T16:35:14;100590.38;;;2.84;76.64
37304;BME280;23188;51.188;16.374;2023-02-26T16:39:25;100598.05;;;2.76;75.64
37304;BME280;23188;51.188;16.374;2023-02-26T17:21:58;100659.80;;;2.45;79.80
37304;BME280;23188;51.188;16.374;2023-02-26T17:40:33;100688.11;;;2.63;80.03
37304;BME280;23188;51.188;16.374;2023-02-26T17:45:26;100693.38;;;2.63;80.64
37304;BME280;23188;51.188;16.374;2023-02-26T18:09:59;100716.98;;;2.11;81.04
37304;BME280;23188;51.188;16.374;2023-02-26T18:14:03;100719.99;;;2.06;81.24
37304;BME280;23188;51.188;16.374;2023-02-26T18:18:11;100727.33;;;2.02;81.81
37304;BME280;23188;51.188;16.374;2023-02-26T18:22:15;100733.08;;;2.02;82.63
37304;BME280;23188;51.188;16.374;2023-02-26T18:26:20;100740.63;;;2.02;81.23
37304;BME280;23188;51.188;16.374;2023-02-26T18:30:30;100743.90;;;2.03;80.79
37304;BME280;23188;51.188;16.374;2023-02-26T18:34:34;100743.55;;;2.03;80.16
37304;BME280;23188;51.188;16.374;2023-02-26T18:38:37;100745.45;;;1.99;81.63
37304;BME280;23188;51.188;16.374;2023-02-26T18:42:40;100753.48;;;1.99;84.07
37304;BME280;23188;51.188;16.374;2023-02-26T18:46:43;100757.90;;;2.03;84.79
37304;BME280;23188;51.188;16.374;2023-02-26T18:50:47;100765.02;;;2.05;85.73
37304;BME280;23188;51.188;16.374;2023-02-26T18:54:51;100770.45;;;2.09;86.15
37304;BME280;23188;51.188;16.374;2023-02-26T18:58:54;100773.65;;;2.12;86.14
37304;BME280;23188;51.188;16.374;2023-02-26T19:02:57;100782.41;;;2.16;85.98
37304;BME280;23188;51.188;16.374;2023-02-26T19:07:00;100788.69;;;2.17;86.16
37304;BME280;23188;51.188;16.374;2023-02-26T19:11:04;100798.13;;;2.22;85.71
37304;BME280;23188;51.188;16.374;2023-02-26T19:15:08;100804.66;;;2.29;85.75
37304;BME280;23188;51.188;16.374;2023-02-26T19:19:12;100802.52;;;2.30;84.99
37304;BME280;23188;51.188;16.374;2023-02-26T19:23:16;100807.39;;;2.27;85.43
37304;BME280;23188;51.188;16.374;2023-02-26T19:27:20;100811.20;;;2.23;85.64
37304;BME280;23188;51.188;16.374;2023-02-26T19:31:23;100816.54;;;2.16;86.49
37304;BME280;23188;51.188;16.374;2023-02-26T19:35:26;100822.03;;;2.09;86.79
37304;BME280;23188;51.188;16.374;2023-02-26T19:39:31;100823.72;;;2.02;86.87
37304;BME280;23188;51.188;16.374;2023-02-26T19:43:36;100829.79;;;2.03;87.48
37304;BME280;23188;51.188;16.374;2023-02-26T19:47:39;100838.45;;;2.05;87.76
37304;BME280;23188;51.188;16.374;2023-02-26T19:51:43;100843.02;;;2.05;88.05
37304;BME280;23188;51.188;16.374;2023-02-26T19:55:48;100847.27;;;1.99;88.24
37304;BME280;23188;51.188;16.374;2023-02-26T19:59:52;100853.30;;;1.87;88.97
37304;BME280;23188;51.188;16.374;2023-02-26T20:03:55;100863.77;;;1.82;89.16
37304;BME280;23188;51.188;16.374;2023-02-26T20:07:58;100863.69;;;1.80;89.79
37304;BME280;23188;51.188;16.374;2023-02-26T20:12:01;100871.48;;;1.77;89.26
37304;BME280;23188;51.188;16.374;2023-02-26T20:16:06;100876.26;;;1.76;89.48
37304;BME280;23188;51.188;16.374;2023-02-26T20:20:10;100882.63;;;1.69;89.81
37304;BME280;23188;51.188;16.374;2023-02-26T20:24:13;100887.91;;;1.67;89.99
37304;BME280;23188;51.188;16.374;2023-02-26T20:28:18;100889.42;;;1.74;90.09
37304;BME280;23188;51.188;16.374;2023-02-26T20:32:21;100889.84;;;1.72;90.14
37304;BME280;23188;51.188;16.374;2023-02-26T20:36:25;100891.73;;;1.73;90.64
37304;BME280;23188;51.188;16.374;2023-02-26T20:40:28;100893.20;;;1.77;90.41
37304;BME280;23188;51.188;16.374;2023-02-26T20:44:31;100904.39;;;1.76;90.56
37304;BME280;23188;51.188;16.374;2023-02-26T20:48:34;100906.65;;;1.77;90.29
37304;BME280;23188;51.188;16.374;2023-02-26T20:52:42;100913.47;;;1.82;89.70
37304;BME280;23188;51.188;16.374;2023-02-26T20:56:45;100916.81;;;1.91;89.39
37304;BME280;23188;51.188;16.374;2023-02-26T21:00:54;100918.19;;;1.97;88.91
37304;BME280;23188;51.188;16.374;2023-02-26T21:04:57;100919.59;;;1.97;88.44
37304;BME280;23188;51.188;16.374;2023-02-26T21:09:00;100921.13;;;2.03;88.55
37304;BME280;23188;51.188;16.374;2023-02-26T21:13:03;100920.83;;;1.97;87.94
37304;BME280;23188;51.188;16.374;2023-02-26T21:17:06;100919.96;;;1.96;88.44
37304;BME280;23188;51.188;16.374;2023-02-26T21:21:09;100923.62;;;1.97;88.55
37304;BME280;23188;51.188;16.374;2023-02-26T21:25:12;100927.98;;;1.97;88.46
37304;BME280;23188;51.188;16.374;2023-02-26T21:29:15;100925.52;;;1.98;88.71
37304;BME280;23188;51.188;16.374;2023-02-26T21:33:19;100932.46;;;1.94;88.65
37304;BME280;23188;51.188;16.374;2023-02-26T21:37:22;100933.05;;;1.97;88.63
37304;BME280;23188;51.188;16.374;2023-02-26T21:41:25;100936.83;;;1.94;88.56
37304;BME280;23188;51.188;16.374;2023-02-26T21:45:29;100942.27;;;1.94;88.62
37304;BME280;23188;51.188;16.374;2023-02-26T21:49:31;100946.66;;;1.98;88.69
37304;BME280;23188;51.188;16.374;2023-02-26T21:53:34;100950.60;;;2.01;88.56
37304;BME280;23188;51.188;16.374;2023-02-26T21:57:37;100952.20;;;2.05;88.33
37304;BME280;23188;51.188;16.374;2023-02-26T22:01:41;100950.44;;;2.01;87.35
37304;BME280;23188;51.188;16.374;2023-02-26T22:05:43;100956.09;;;1.99;87.68
37304;BME280;23188;51.188;16.374;2023-02-26T22:09:46;100958.39;;;1.98;86.70
37304;BME280;23188;51.188;16.374;2023-02-26T22:13:50;100960.76;;;1.96;87.50
37304;BME280;23188;51.188;16.374;2023-02-26T22:17:53;100965.30;;;1.91;87.21
37304;BME280;23188;51.188;16.374;2023-02-26T22:21:56;100967.58;;;1.95;86.41
37304;BME280;23188;51.188;16.374;2023-02-26T22:25:59;100971.05;;;1.96;86.25
37304;BME280;23188;51.188;16.374;2023-02-26T22:30:05;100972.60;;;1.92;85.83
37304;BME280;23188;51.188;16.374;2023-02-26T22:34:08;100982.89;;;1.93;85.70
37304;BME280;23188;51.188;16.374;2023-02-26T22:38:11;100983.52;;;1.90;84.90
37304;BME280;23188;51.188;16.374;2023-02-26T22:42:14;100987.05;;;1.89;85.10
37304;BME280;23188;51.188;16.374;2023-02-26T22:46:17;100991.77;;;1.89;85.77
37304;BME280;23188;51.188;16.374;2023-02-26T22:50:20;100990.36;;;1.89;85.67
37304;BME280;23188;51.188;16.374;2023-02-26T22:54:23;100993.08;;;1.91;84.87
37304;BME280;23188;51.188;16.374;2023-02-26T22:58:26;100993.58;;;1.92;84.76
37304;BME280;23188;51.188;16.374;2023-02-26T23:02:29;100997.48;;;1.91;84.57
37304;BME280;23188;51.188;16.374;2023-02-26T23:06:32;101002.27;;;1.94;84.48
37304;BME280;23188;51.188;16.374;2023-02-26T23:10:35;101007.48;;;1.90;84.80
37304;BME280;23188;51.188;16.374;2023-02-26T23:14:38;101012.10;;;1.88;85.32
37304;BME280;23188;51.188;16.374;2023-02-26T23:18:41;101012.13;;;1.81;85.24
37304;BME280;23188;51.188;16.374;2023-02-26T23:22:47;101020.48;;;1.77;83.81
37304;BME280;23188;51.188;16.374;2023-02-26T23:26:49;101027.23;;;1.74;83.83
37304;BME280;23188;51.188;16.374;2023-02-26T23:30:52;101027.66;;;1.71;84.48
37304;BME280;23188;51.188;16.374;2023-02-26T23:34:56;101032.56;;;1.72;84.47
37304;BME280;23188;51.188;16.374;2023-02-26T23:38:59;101032.70;;;1.72;84.32
37304;BME280;23188;51.188;16.374;2023-02-26T23:43:02;101036.66;;;1.75;84.16
37304;BME280;23188;51.188;16.374;2023-02-26T23:47:06;101041.41;;;1.74;83.84
37304;BME280;23188;51.188;16.374;2023-02-26T23:51:08;101044.17;;;1.75;84.31
37304;BME280;23188;51.188;16.374;2023-02-26T23:55:11;101043.92;;;1.77;83.89
37304;BME280;23188;51.188;16.374;2023-02-26T23:59:15;101042.52;;;1.78;82.77
